PAUN/UNK METAR and TAF weather

Enter ICAO airport designator
Station Type Date Time Source
PAUN METAR 2022/06/25 21:56 UTC NOAA

PAUN 252156Z AUTO 27004KT 10SM SCT075 BKN095 17/07 A3015 RMK AO2 SLP212 T01720067


Station Type Date Time Source
PAUN Decoded METAR 2022/06/25 21:56 UTC NOAA

Unalakleet, AK, United States (PAUN) 63-53N 160-48W 6M
Jun 25, 2022 - 05:56 PM EDT / 2022.06.25 2156 UTC
Wind: from the W (270 degrees) at 5 MPH (4 KT):0
Visibility: 10 mile(s):0
Sky conditions: mostly cloudy
Temperature: 63.0 F (17.2 C)
Dew Point: 44.1 F (6.7 C)
Relative Humidity: 50%
Pressure (altimeter): 30.15 in. Hg (1020 hPa)
ob: PAUN 252156Z AUTO 27004KT 10SM SCT075 BKN095 17/07 A3015 RMK AO2 SLP212 T01720067
cycle: 22

Station Type Date Time Source
PAUN TAF 2022/06/25 18:48 UTC NOAA

TAF PAUN 251747Z 2518/2618 14003KT P6SM VCSH BKN070
FM260800 12010KT P6SM VCSH FEW025 BKN050 OVC100
FM261400 10013KT 5SM -SHRA BKN025 OVC050

Example: see airport list